Historyczne dane pomiarowe

Dodano dane terminowe – wersja testowa.

Dane z okresu 1951-2019

Wersja bazy: 1.34 [2019-03-16, lista zmian], aktualizacja planowana na 2019-04-15

Dane meteo z obszaru Polski uzyskane na podstawie danych udostępnionych przez Instytut Meteorologii i Gospodarki Wodnej – Państwowy Instytut Badawczy.

 

Wybierz Datę:    

       

TemperaturaWilgotnośćWiatrCiśnienieOpadyŚniegCzas trwania zjawisk
 Stacja t tx tn tng RH VA  wxwx mslp ppp RRR   cm mm wxwxwxwxwxwxwx
1996-08-13 17.5 21.3 14.0- 67.5- 5.0 2.3---- 0.4------------
1996-08-14 16.6 18.7 14.9- 86.5- 6.3 5.0---- 20.8------------
1996-08-15 17.4 21.3 14.5- 84.3- 2.7 1.7---- 0.0------------
1996-08-16 16.1 22.7 9.3- 86.0- 2.7 1.3---- 0.7------------
1996-08-17 18.9 25.1 15.0- 82.5- 0.3 1.0---- 0.0------------
1996-08-18 18.5 26.9 8.8- 66.0- 0.0 1.0---- 0.0------------
1996-08-19 19.5 27.9 13.4- 77.3- 0.0 3.3---- 0.0------------
1996-08-20 19.9 27.7 12.9- 70.5- 0.7 1.0---- 0.0------------
1996-08-21 19.6 26.7 12.9- 72.0- 0.7 1.3---- 1.9------------
1996-08-22 19.7 22.3 17.1- 80.3- 3.0 1.7---- 0.0------------
1996-08-23 20.7 27.2 16.5- 76.3- 2.7 1.7---- 0.0------------
1996-08-24 19.7 25.7 14.0- 73.3- 0.0 3.0---- 0.0------------
1996-08-25 19.0 25.7 11.9- 75.8- 0.0 2.0---- 0.0------------
1996-08-26 17.2 20.9 14.0- 92.8- 5.3 1.7---- 2.0------------
1996-08-27 16.9 20.6 13.4- 93.5- 6.0 1.7---- 0.0------------
1996-08-28 19.1 24.2 15.3- 78.0- 2.7 5.0---- 0.0------------
1996-08-29 17.2 20.7 15.0- 88.0- 3.7 2.0---- 2.0------------
1996-08-30 16.9 19.2 14.5- 77.3- 5.7 1.3---- 0.9------------
1996-08-31 17.5 20.8 15.0- 90.0- 6.0 1.0---- 0.8------------
1996-09-01 17.0 19.7 15.0- 87.0- 3.0 1.7---- 0.0------------
1996-09-02 18.5 24.9 14.5- 75.5- 2.3 2.7---- 0.0------------
1996-09-03 18.6 25.1 15.0- 79.3- 1.7 1.7---- 0.0------------
1996-09-04 15.7 21.4 12.4- 82.8- 4.7 1.7---- 0.9------------
1996-09-05 13.3 17.4 10.5- 79.0- 4.7 3.0---- 0.0------------
1996-09-06 10.9 16.3 7.8- 83.5- 4.0 4.3---- 6.7------------
1996-09-07 11.9 13.9 9.5- 93.0- 8.0 5.0---- 0.1------------
1996-09-08 11.6 13.5 10.3- 90.8- 6.0 7.0---- 0.0------------
1996-09-09 9.2 14.3 4.1- 77.0- 2.0 3.3---- 0.0------------
1996-09-10 8.9 14.4 4.5- 96.5- 4.7 1.0---- 2.5------------
1996-09-11 8.6 10.6 7.3- 93.3- 7.3 3.0---- 7.2------------
1846.3 ms

 

Źródłem pochodzenia danych jest Instytut Meteorologii i Gospodarki Wodnej – Państwowy Instytut Badawczy. Dane Instytutu Meteorologii i Gospodarki Wodnej – Państwowego Instytutu Badawczego zostały przetworzone.

Dane źródłowe można odnaleźć na stronie https://dane.imgw.pl